Time;durP1;ratioP1;P1;durP2;ratioP2;P2;SDS_P1;SDS_P2;PMS_P1;PMS_P2;Temp;Humidity;BMP_temperature;BMP_pressure;BME280_temperature;BME280_humidity;BME280_pressure;Samples;Min_cycle;Max_cycle;Signal;HPM_P1;HPM_P2
2024/01/27 00:00:27;;;;;;;6.30;4.10;;;;;;;4.35;93.59;100257.90;113156;239;38357;-68
2024/01/27 00:03:21;;;;;;;5.60;2.80;;;;;;;4.39;93.38;100267.35;113154;239;38534;-68
2024/01/27 00:05:55;;;;;;;5.10;3.00;;;;;;;4.45;93.48;100278.67;113178;239;38851;-68
2024/01/27 00:08:28;;;;;;;5.70;2.60;;;;;;;4.48;93.40;100286.39;113143;239;38500;-68
2024/01/27 00:11:02;;;;;;;6.70;2.00;;;;;;;4.50;93.21;100296.74;113042;239;174997;-68
2024/01/27 00:13:36;;;;;;;3.90;1.70;;;;;;;4.48;92.87;100297.45;113144;239;38711;-68
2024/01/27 00:16:11;;;;;;;4.70;1.60;;;;;;;4.45;92.76;100298.89;113170;239;38772;-69
2024/01/27 00:18:45;;;;;;;3.60;1.60;;;;;;;4.44;92.60;100316.69;113144;239;39636;-70
2024/01/27 00:21:19;;;;;;;3.30;1.30;;;;;;;4.46;92.57;100319.94;113122;239;38361;-69
2024/01/27 00:24:00;;;;;;;4.40;1.40;;;;;;;4.46;92.18;100325.98;113142;239;38612;-69
2024/01/27 00:26:34;;;;;;;5.70;1.80;;;;;;;4.47;92.32;100330.63;113139;239;38314;-68
2024/01/27 00:29:08;;;;;;;5.50;2.10;;;;;;;4.45;92.24;100336.70;113046;239;172450;-69
2024/01/27 00:31:42;;;;;;;3.80;1.60;;;;;;;4.44;92.31;100334.31;113167;239;39021;-70
2024/01/27 00:34:16;;;;;;;3.70;1.60;;;;;;;4.45;92.24;100339.48;113158;239;38586;-69
2024/01/27 00:36:49;;;;;;;4.80;1.80;;;;;;;4.43;92.07;100339.32;113144;239;39020;-69
2024/01/27 00:39:24;;;;;;;5.70;1.30;;;;;;;4.41;91.81;100342.63;113141;239;39987;-68
2024/01/27 00:41:58;;;;;;;3.40;1.50;;;;;;;4.42;91.91;100347.46;113136;239;38495;-68
2024/01/27 00:44:32;;;;;;;7.20;2.20;;;;;;;4.42;91.92;100351.08;113162;239;38264;-68
2024/01/27 00:47:07;;;;;;;8.10;1.90;;;;;;;4.43;91.97;100357.11;113166;239;39467;-68
2024/01/27 00:49:41;;;;;;;5.70;2.00;;;;;;;4.41;91.83;100365.95;113041;239;174999;-68
2024/01/27 00:52:14;;;;;;;9.50;2.30;;;;;;;4.40;91.64;100370.45;113146;239;38327;-68
2024/01/27 00:54:48;;;;;;;8.30;1.90;;;;;;;4.39;91.65;100373.06;113168;239;38392;-69
2024/01/27 00:57:22;;;;;;;6.10;2.10;;;;;;;4.41;91.63;100374.59;113118;239;39144;-69
2024/01/27 00:59:56;;;;;;;7.80;2.20;;;;;;;4.42;91.35;100380.44;113160;239;38355;-68
2024/01/27 01:02:30;;;;;;;9.50;2.30;;;;;;;4.38;91.19;100379.80;113119;239;40026;-68
2024/01/27 01:05:05;;;;;;;8.70;1.80;;;;;;;4.37;91.17;100380.84;113102;239;39597;-69
2024/01/27 01:07:39;;;;;;;6.30;2.20;;;;;;;4.33;91.14;100381.41;113120;239;39548;-69
2024/01/27 01:10:13;;;;;;;7.90;1.90;;;;;;;4.30;90.88;100381.64;113167;239;38842;-68
2024/01/27 01:12:47;;;;;;;6.40;2.10;;;;;;;4.29;90.84;100385.10;113044;239;172470;-68
2024/01/27 01:15:21;;;;;;;7.00;1.90;;;;;;;4.28;90.70;100388.90;112956;239;40031;-67
2024/01/27 01:17:54;;;;;;;5.50;1.80;;;;;;;4.29;90.73;100392.86;113152;239;38794;-67
2024/01/27 01:20:29;;;;;;;8.80;2.50;;;;;;;4.27;90.50;100398.59;113170;239;39498;-69
2024/01/27 01:23:03;;;;;;;12.30;2.70;;;;;;;4.22;90.51;100406.58;112230;239;909028;-70
2024/01/27 01:25:37;;;;;;;8.60;2.20;;;;;;;4.19;90.54;100410.59;113154;239;39039;-69
2024/01/27 01:28:11;;;;;;;8.10;2.70;;;;;;;4.17;90.47;100409.39;112826;239;175026;-69
2024/01/27 01:30:45;;;;;;;9.40;2.20;;;;;;;4.16;90.37;100406.48;113168;239;38433;-69
2024/01/27 01:33:19;;;;;;;9.10;1.80;;;;;;;4.15;90.26;100411.16;113108;239;38777;-69
2024/01/27 01:35:53;;;;;;;11.70;2.30;;;;;;;4.13;90.08;100414.96;113110;239;38744;-68
2024/01/27 01:38:27;;;;;;;5.60;1.90;;;;;;;4.11;89.98;100415.86;113121;239;40043;-68
2024/01/27 01:41:01;;;;;;;8.00;2.40;;;;;;;4.08;89.93;100419.34;113159;239;38866;-69
2024/01/27 01:43:35;;;;;;;7.70;2.50;;;;;;;4.06;90.05;100417.98;113140;239;39733;-69
2024/01/27 01:46:08;;;;;;;7.10;1.70;;;;;;;4.04;89.98;100421.12;113167;239;38822;-69
2024/01/27 01:48:42;;;;;;;10.70;2.40;;;;;;;4.04;89.97;100428.73;113124;239;38797;-69
2024/01/27 01:51:16;;;;;;;10.30;2.40;;;;;;;4.05;89.91;100424.23;113145;239;39229;-68
2024/01/27 01:53:53;;;;;;;8.50;2.40;;;;;;;4.05;90.00;100423.88;113123;239;38703;-68
2024/01/27 01:56:26;;;;;;;13.10;3.20;;;;;;;4.06;90.02;100427.48;113135;239;38994;-69
2024/01/27 01:59:00;;;;;;;10.30;2.60;;;;;;;4.04;89.91;100430.96;113162;239;38524;-68
2024/01/27 02:01:34;;;;;;;8.50;2.30;;;;;;;4.02;89.93;100429.41;113131;239;38778;-68
2024/01/27 02:04:08;;;;;;;6.10;2.20;;;;;;;4.04;89.82;100434.40;113148;239;39529;-69
2024/01/27 02:06:42;;;;;;;6.40;2.40;;;;;;;4.04;89.64;100429.74;113163;239;39607;-69
2024/01/27 02:09:16;;;;;;;8.70;2.40;;;;;;;4.05;89.70;100435.09;113161;239;39655;-68
2024/01/27 02:11:50;;;;;;;5.90;2.40;;;;;;;4.06;89.59;100435.77;113164;239;38885;-68
2024/01/27 02:14:26;;;;;;;12.10;2.40;;;;;;;4.05;89.63;100438.89;113145;239;38796;-68
2024/01/27 02:17:00;;;;;;;13.10;3.30;;;;;;;4.06;89.69;100443.70;113127;239;39727;-67
2024/01/27 02:19:33;;;;;;;8.50;3.40;;;;;;;4.09;89.82;100439.52;113138;239;39806;-70
2024/01/27 02:22:08;;;;;;;8.70;2.30;;;;;;;4.13;89.61;100446.23;113141;239;38643;-70
2024/01/27 02:24:41;;;;;;;9.00;2.40;;;;;;;4.16;89.52;100443.95;113152;239;39667;-69
2024/01/27 02:27:15;;;;;;;10.70;3.00;;;;;;;4.19;89.56;100442.55;113146;239;38901;-70
2024/01/27 02:29:49;;;;;;;10.10;3.00;;;;;;;4.22;89.65;100441.29;113156;239;40393;-68
2024/01/27 02:32:23;;;;;;;8.00;1.80;;;;;;;4.24;89.43;100446.98;113137;239;38845;-69
2024/01/27 02:34:57;;;;;;;8.90;2.30;;;;;;;4.24;89.35;100446.29;113154;239;38742;-68
2024/01/27 02:37:30;;;;;;;7.80;2.60;;;;;;;4.25;89.05;100443.69;113118;239;38370;-68
2024/01/27 02:40:05;;;;;;;7.90;2.10;;;;;;;4.25;88.85;100450.08;113136;239;38375;-69
2024/01/27 02:42:41;;;;;;;8.10;2.30;;;;;;;4.25;88.70;100454.39;113139;239;38821;-69
2024/01/27 02:45:15;;;;;;;12.70;3.00;;;;;;;4.24;88.57;100459.23;112942;239;40310;-68
2024/01/27 02:47:49;;;;;;;10.50;2.50;;;;;;;4.22;88.56;100462.71;113170;239;39541;-68
2024/01/27 02:50:23;;;;;;;6.90;2.20;;;;;;;4.22;88.49;100470.64;113153;239;38321;-69
2024/01/27 02:52:57;;;;;;;8.00;2.30;;;;;;;4.22;88.34;100472.19;113131;239;37957;-69
2024/01/27 02:55:31;;;;;;;9.00;2.10;;;;;;;4.23;88.31;100465.29;113140;239;38851;-68
2024/01/27 02:58:05;;;;;;;9.80;2.90;;;;;;;4.26;88.40;100472.51;113167;239;38364;-68
2024/01/27 03:00:39;;;;;;;9.30;2.40;;;;;;;4.30;88.45;100469.35;113044;239;172360;-69
2024/01/27 03:03:13;;;;;;;6.50;2.00;;;;;;;4.31;88.22;100469.00;113020;239;174966;-69
2024/01/27 03:05:47;;;;;;;7.50;1.70;;;;;;;4.32;88.10;100471.41;113141;239;38534;-69
2024/01/27 03:08:21;;;;;;;9.50;2.20;;;;;;;4.31;87.83;100474.02;113129;239;39186;-69
2024/01/27 03:10:55;;;;;;;9.10;2.20;;;;;;;4.31;87.72;100473.66;113157;239;38283;-67
2024/01/27 03:13:29;;;;;;;8.60;3.00;;;;;;;4.31;87.57;100479.71;113097;239;38780;-67
2024/01/27 03:16:03;;;;;;;10.90;2.80;;;;;;;4.32;87.70;100479.69;113159;239;38834;-69
2024/01/27 03:18:38;;;;;;;10.50;3.10;;;;;;;4.34;87.63;100484.34;113139;239;39191;-69
2024/01/27 03:21:12;;;;;;;11.20;2.60;;;;;;;4.34;87.62;100478.64;113139;239;38747;-68
2024/01/27 03:23:46;;;;;;;10.10;2.40;;;;;;;4.36;87.55;100482.92;113146;239;38555;-68
2024/01/27 03:26:20;;;;;;;12.00;2.80;;;;;;;4.36;87.19;100479.66;112938;239;38545;-69
2024/01/27 03:28:57;;;;;;;9.60;2.40;;;;;;;4.37;87.09;100488.45;113153;239;38331;-69
2024/01/27 03:31:35;;;;;;;9.60;2.50;;;;;;;4.37;87.10;100486.88;113152;239;38735;-69
2024/01/27 03:34:09;;;;;;;10.50;2.70;;;;;;;4.38;87.07;100492.94;113167;239;38226;-68
2024/01/27 03:36:43;;;;;;;12.60;2.70;;;;;;;4.38;86.82;100492.59;113040;239;175011;-68
2024/01/27 03:39:17;;;;;;;10.40;2.70;;;;;;;4.37;86.60;100498.81;113137;239;38668;-67
2024/01/27 03:41:51;;;;;;;10.30;3.40;;;;;;;4.37;86.44;100498.63;113156;239;39009;-68
2024/01/27 03:44:25;;;;;;;12.00;3.30;;;;;;;4.40;86.40;100495.86;113136;239;39466;-69
2024/01/27 03:46:59;;;;;;;12.40;2.70;;;;;;;4.38;86.12;100494.30;113124;239;38653;-69
2024/01/27 03:49:33;;;;;;;16.40;3.30;;;;;;;4.38;86.30;100499.49;113090;239;40274;-69
2024/01/27 03:52:07;;;;;;;12.00;2.70;;;;;;;4.37;86.19;100498.29;113094;239;38314;-69
2024/01/27 03:54:43;;;;;;;12.20;3.60;;;;;;;4.36;86.11;100502.63;113172;239;38308;-69
2024/01/27 03:57:17;;;;;;;10.80;2.70;;;;;;;4.35;86.06;100504.20;113170;239;38638;-69
2024/01/27 03:59:51;;;;;;;9.90;2.10;;;;;;;4.33;86.08;100501.78;113166;239;38865;-69
2024/01/27 04:02:24;;;;;;;8.60;2.30;;;;;;;4.34;86.09;100506.11;113146;239;39893;-69
2024/01/27 04:04:59;;;;;;;11.10;3.00;;;;;;;4.34;86.24;100508.70;113170;239;38562;-69
2024/01/27 04:07:32;;;;;;;9.20;3.10;;;;;;;4.36;86.23;100509.88;113034;239;172429;-69
2024/01/27 04:10:09;;;;;;;12.10;3.40;;;;;;;4.37;86.15;100515.21;112899;239;38385;-69
2024/01/27 04:12:43;;;;;;;9.70;2.40;;;;;;;4.36;85.98;100513.33;113127;239;39784;-69
2024/01/27 04:15:17;;;;;;;9.60;2.70;;;;;;;4.35;85.87;100509.89;113143;239;38728;-69
2024/01/27 04:17:51;;;;;;;7.80;2.30;;;;;;;4.37;85.82;100512.97;113132;239;38309;-69
2024/01/27 04:20:24;;;;;;;11.10;2.60;;;;;;;4.38;85.72;100514.52;113133;239;39446;-69
2024/01/27 04:22:58;;;;;;;14.80;3.60;;;;;;;4.40;85.60;100518.47;113179;239;38419;-69
2024/01/27 04:25:32;;;;;;;13.40;3.80;;;;;;;4.42;85.55;100516.73;113163;239;38401;-68
2024/01/27 04:28:09;;;;;;;11.50;3.10;;;;;;;4.43;85.42;100521.19;113133;239;39512;-68
2024/01/27 04:30:42;;;;;;;11.20;2.40;;;;;;;4.40;85.19;100518.31;113147;239;38266;-68
2024/01/27 04:33:17;;;;;;;10.10;3.00;;;;;;;4.38;85.05;100522.45;113137;239;38506;-69
2024/01/27 04:35:51;;;;;;;5.00;2.00;;;;;;;4.36;84.90;100526.80;113121;239;39857;-67
2024/01/27 04:38:25;;;;;;;8.40;2.90;;;;;;;4.36;84.98;100529.39;113131;239;38277;-67
2024/01/27 04:40:59;;;;;;;10.00;2.60;;;;;;;4.38;85.05;100534.05;112948;239;38341;-68
2024/01/27 04:43:33;;;;;;;12.50;2.80;;;;;;;4.39;84.94;100538.35;113153;239;38712;-68
2024/01/27 04:46:07;;;;;;;13.00;2.90;;;;;;;4.38;84.90;100542.49;113117;239;38833;-69
2024/01/27 04:48:41;;;;;;;9.50;2.60;;;;;;;4.37;84.78;100549.07;113139;239;38275;-69
2024/01/27 04:51:15;;;;;;;11.70;3.40;;;;;;;4.35;84.64;100549.45;113142;239;38918;-69
2024/01/27 04:53:50;;;;;;;8.00;2.40;;;;;;;4.33;84.64;100554.98;112998;239;175033;-69
2024/01/27 04:56:24;;;;;;;8.40;2.60;;;;;;;4.32;84.68;100556.20;113161;239;38720;-67
2024/01/27 04:58:57;;;;;;;14.00;2.80;;;;;;;4.34;84.83;100548.41;113168;239;38267;-69
2024/01/27 05:01:31;;;;;;;13.80;3.30;;;;;;;4.37;84.98;100550.80;113145;239;38317;-67
2024/01/27 05:04:05;;;;;;;15.50;3.60;;;;;;;4.40;85.03;100556.64;113154;239;38568;-68
2024/01/27 05:06:39;;;;;;;16.90;4.30;;;;;;;4.38;85.05;100554.08;112621;241;317812;-67
2024/01/27 05:09:14;;;;;;;9.70;2.60;;;;;;;4.36;84.94;100552.88;113136;239;38851;-69
2024/01/27 05:11:48;;;;;;;9.40;2.40;;;;;;;4.34;84.83;100556.36;113170;239;38435;-69
2024/01/27 05:14:22;;;;;;;10.60;2.50;;;;;;;4.31;84.75;100554.14;113162;239;39950;-67
2024/01/27 05:16:56;;;;;;;9.90;2.90;;;;;;;4.33;84.93;100553.26;113171;239;38650;-67
2024/01/27 05:19:30;;;;;;;9.50;2.70;;;;;;;4.36;84.99;100556.34;113124;239;38637;-68
2024/01/27 05:22:04;;;;;;;12.80;3.90;;;;;;;4.36;84.99;100553.92;113179;239;38329;-68
2024/01/27 05:24:38;;;;;;;11.80;3.30;;;;;;;4.35;84.90;100554.98;113141;239;38277;-67
2024/01/27 05:27:12;;;;;;;12.50;2.80;;;;;;;4.33;84.85;100558.08;113142;239;39372;-67
2024/01/27 05:29:45;;;;;;;10.40;3.00;;;;;;;4.31;84.81;100553.79;113162;239;39483;-69
2024/01/27 05:32:19;;;;;;;9.70;3.50;;;;;;;4.31;84.82;100552.41;113167;239;39765;-69
2024/01/27 05:34:53;;;;;;;8.90;3.20;;;;;;;4.32;84.84;100548.95;113143;239;37995;-68
2024/01/27 05:37:27;;;;;;;14.10;3.30;;;;;;;4.32;84.89;100551.53;113171;239;39608;-68
2024/01/27 05:40:00;;;;;;;13.50;3.60;;;;;;;4.32;85.06;100547.73;113182;239;38746;-68
2024/01/27 05:42:34;;;;;;;13.70;3.80;;;;;;;4.32;84.98;100544.29;113116;239;39755;-68
2024/01/27 05:45:11;;;;;;;11.00;3.20;;;;;;;4.30;85.11;100540.85;113145;239;39468;-69
2024/01/27 05:47:45;;;;;;;12.50;3.60;;;;;;;4.29;84.93;100539.66;113137;239;39002;-69
2024/01/27 05:50:19;;;;;;;9.50;2.70;;;;;;;4.28;84.99;100542.25;113116;239;39291;-69
2024/01/27 05:52:52;;;;;;;12.10;3.80;;;;;;;4.28;84.97;100534.14;113143;239;38387;-69
2024/01/27 05:55:26;;;;;;;15.30;3.50;;;;;;;4.31;84.99;100538.95;113134;239;39100;-68
2024/01/27 05:58:00;;;;;;;13.30;4.30;;;;;;;4.33;84.88;100535.48;113152;239;38355;-68
2024/01/27 06:00:34;;;;;;;14.20;3.10;;;;;;;4.32;84.46;100536.85;107736;239;3012668;-68
2024/01/27 06:03:08;;;;;;;12.00;2.90;;;;;;;4.31;84.46;100542.23;113115;239;25260;-68
2024/01/27 06:05:43;;;;;;;10.30;2.70;;;;;;;4.27;84.45;100539.15;113153;239;38700;-68
2024/01/27 06:08:18;;;;;;;11.50;2.30;;;;;;;4.26;84.33;100544.01;113138;239;38302;-68
2024/01/27 06:10:52;;;;;;;12.90;3.10;;;;;;;4.25;84.30;100543.33;113156;239;38375;-69
2024/01/27 06:13:26;;;;;;;13.30;3.60;;;;;;;4.28;84.29;100545.54;113133;239;39722;-69
2024/01/27 06:16:00;;;;;;;12.00;3.10;;;;;;;4.28;84.25;100545.36;113161;239;38661;-68
2024/01/27 06:18:34;;;;;;;14.00;3.70;;;;;;;4.27;84.24;100548.65;113108;239;38536;-68
2024/01/27 06:21:09;;;;;;;11.10;2.70;;;;;;;4.26;84.23;100552.80;113153;239;38935;-68
2024/01/27 06:23:43;;;;;;;10.20;3.30;;;;;;;4.25;84.25;100554.89;113143;239;38488;-68
2024/01/27 06:26:18;;;;;;;9.40;2.70;;;;;;;4.26;84.14;100556.78;113130;239;38237;-68
2024/01/27 06:28:52;;;;;;;8.20;2.90;;;;;;;4.26;84.06;100563.34;112453;239;910996;-68
2024/01/27 06:31:26;;;;;;;14.10;4.20;;;;;;;4.24;84.12;100563.02;113162;239;39743;-69
2024/01/27 06:34:00;;;;;;;10.20;3.10;;;;;;;4.21;84.32;100564.59;113162;239;38695;-69
2024/01/27 06:36:34;;;;;;;11.90;3.10;;;;;;;4.19;84.39;100566.70;113115;239;39451;-69
2024/01/27 06:39:09;;;;;;;14.10;3.60;;;;;;;4.15;84.49;100568.27;113057;239;175048;-68
2024/01/27 06:41:43;;;;;;;10.70;3.30;;;;;;;4.14;84.69;100572.25;113169;239;39894;-68
2024/01/27 06:44:17;;;;;;;12.70;2.90;;;;;;;4.13;84.77;100575.02;113133;239;38332;-68
2024/01/27 06:46:51;;;;;;;11.30;3.00;;;;;;;4.11;84.75;100582.13;113123;239;38862;-67
2024/01/27 06:49:25;;;;;;;10.00;3.20;;;;;;;4.11;85.08;100591.78;113134;239;39295;-68
2024/01/27 06:51:59;;;;;;;12.60;3.30;;;;;;;4.13;85.22;100595.40;113148;239;38306;-68
2024/01/27 06:54:32;;;;;;;10.00;3.40;;;;;;;4.13;85.39;100598.32;113150;239;38983;-69
2024/01/27 06:57:06;;;;;;;15.60;4.30;;;;;;;4.12;85.46;100595.73;112426;239;910960;-70
2024/01/27 06:59:40;;;;;;;10.10;3.50;;;;;;;4.11;85.61;100598.52;113138;239;39741;-69
2024/01/27 07:02:14;;;;;;;11.40;3.20;;;;;;;4.10;85.67;100596.30;113118;239;38276;-69
2024/01/27 07:04:48;;;;;;;10.30;2.90;;;;;;;4.11;85.71;100596.61;113110;239;39039;-68
2024/01/27 07:07:23;;;;;;;11.40;3.00;;;;;;;4.08;85.58;100597.33;113164;239;39916;-68
2024/01/27 07:09:57;;;;;;;14.20;4.00;;;;;;;4.08;85.77;100596.80;112914;239;38419;-69
2024/01/27 07:12:31;;;;;;;14.60;3.80;;;;;;;4.06;85.80;100598.90;113116;239;39544;-70
2024/01/27 07:15:06;;;;;;;11.70;3.90;;;;;;;4.06;86.13;100599.77;113134;239;38452;-69
2024/01/27 07:17:40;;;;;;;13.80;3.20;;;;;;;4.05;86.16;100604.61;113153;239;38250;-69
2024/01/27 07:20:15;;;;;;;9.20;3.40;;;;;;;4.05;86.32;100604.45;113145;239;40158;-68
2024/01/27 07:22:49;;;;;;;11.70;3.20;;;;;;;4.08;86.47;100609.93;113138;239;38592;-68
2024/01/27 07:25:23;;;;;;;10.30;3.10;;;;;;;4.12;86.55;100611.63;113136;239;39504;-69
2024/01/27 07:27:57;;;;;;;7.40;3.20;;;;;;;4.16;86.50;100611.95;113127;239;38631;-69
2024/01/27 07:30:32;;;;;;;8.90;2.80;;;;;;;4.13;86.36;100614.04;113147;239;38422;-68
2024/01/27 07:33:06;;;;;;;10.20;3.00;;;;;;;4.15;86.68;100617.66;113147;239;38475;-68
2024/01/27 07:35:40;;;;;;;9.60;2.90;;;;;;;4.17;86.79;100618.67;113123;239;38599;-68
2024/01/27 07:38:14;;;;;;;8.00;2.70;;;;;;;4.14;86.63;100616.63;113154;239;38331;-68
2024/01/27 07:40:48;;;;;;;6.00;2.30;;;;;;;4.13;86.58;100620.42;113148;239;38312;-69
2024/01/27 07:43:22;;;;;;;9.30;2.20;;;;;;;4.13;86.76;100620.60;113160;239;38359;-70
2024/01/27 07:45:56;;;;;;;6.40;1.90;;;;;;;4.18;87.00;100621.25;113119;239;39119;-69
2024/01/27 07:48:30;;;;;;;8.70;3.50;;;;;;;4.24;87.18;100621.55;113099;239;38333;-70
2024/01/27 07:51:04;;;;;;;6.30;2.40;;;;;;;4.30;87.06;100622.54;113022;239;174967;-69
2024/01/27 07:53:39;;;;;;;9.20;3.10;;;;;;;4.31;86.78;100626.85;113129;239;38803;-69
2024/01/27 07:56:13;;;;;;;10.60;3.10;;;;;;;4.28;86.75;100629.98;113156;239;38535;-70
2024/01/27 07:58:47;;;;;;;9.80;3.00;;;;;;;4.26;86.82;100630.34;113148;239;38323;-70
2024/01/27 08:01:21;;;;;;;5.90;2.00;;;;;;;4.26;86.80;100626.37;113140;239;38868;-69
2024/01/27 08:03:56;;;;;;;9.20;2.50;;;;;;;4.28;86.81;100634.64;113119;239;38677;-69
2024/01/27 08:06:33;;;;;;;7.20;2.20;;;;;;;4.30;86.90;100638.94;113163;239;38928;-68
2024/01/27 08:09:08;;;;;;;8.70;2.10;;;;;;;4.36;87.07;100635.42;113142;239;38230;-68
2024/01/27 08:11:43;;;;;;;6.70;2.40;;;;;;;4.38;86.85;100640.77;113172;239;38388;-68
2024/01/27 08:14:17;;;;;;;9.10;3.20;;;;;;;4.38;86.90;100642.33;113134;239;38342;-68
2024/01/27 08:16:51;;;;;;;8.00;2.60;;;;;;;4.42;87.01;100642.81;113162;239;39232;-69
2024/01/27 08:19:26;;;;;;;10.10;2.80;;;;;;;4.44;86.92;100646.60;113166;239;38303;-69
2024/01/27 08:22:00;;;;;;;5.70;2.30;;;;;;;4.43;86.89;100644.02;113160;239;38441;-69
2024/01/27 08:24:34;;;;;;;5.00;2.30;;;;;;;4.45;86.86;100644.70;113146;239;38828;-69
2024/01/27 08:27:08;;;;;;;4.40;2.20;;;;;;;4.46;86.56;100645.37;113140;239;38173;-69
2024/01/27 08:29:42;;;;;;;9.40;3.10;;;;;;;4.44;86.52;100649.02;113155;239;40244;-68
2024/01/27 08:32:17;;;;;;;7.40;2.90;;;;;;;4.41;86.89;100648.69;113158;239;39893;-68
2024/01/27 08:34:51;;;;;;;7.90;3.20;;;;;;;4.44;86.94;100654.39;113141;239;38245;-69
2024/01/27 08:37:25;;;;;;;9.30;3.00;;;;;;;4.46;87.13;100651.77;113164;239;39502;-69
2024/01/27 08:40:00;;;;;;;8.10;2.90;;;;;;;4.47;87.10;100653.83;113163;239;39460;-68
2024/01/27 08:42:34;;;;;;;7.40;2.90;;;;;;;4.49;86.94;100658.31;113171;239;38352;-68
2024/01/27 08:45:09;;;;;;;6.50;3.20;;;;;;;4.52;87.10;100651.90;113157;239;38999;-68
2024/01/27 08:47:44;;;;;;;5.70;2.40;;;;;;;4.58;87.12;100653.57;113145;239;39590;-67
2024/01/27 08:50:18;;;;;;;7.70;2.80;;;;;;;4.61;87.06;100658.89;113154;239;38284;-69
2024/01/27 08:52:52;;;;;;;7.10;2.80;;;;;;;4.66;87.23;100667.83;113150;239;39877;-69
2024/01/27 08:55:26;;;;;;;5.60;2.60;;;;;;;4.69;87.04;100671.27;113157;239;39339;-70
2024/01/27 08:58:00;;;;;;;6.90;2.60;;;;;;;4.68;87.00;100670.75;113161;239;39393;-70
2024/01/27 09:00:34;;;;;;;3.70;2.30;;;;;;;4.66;86.77;100671.29;113173;239;39078;-69
2024/01/27 09:03:09;;;;;;;5.40;2.90;;;;;;;4.64;86.46;100682.20;112462;239;908578;-68
2024/01/27 09:05:45;;;;;;;4.40;2.70;;;;;;;4.60;86.40;100687.23;113183;239;38239;-69
2024/01/27 09:08:19;;;;;;;4.00;2.40;;;;;;;4.60;86.69;100686.55;113128;239;38263;-68
2024/01/27 09:10:52;;;;;;;5.70;2.60;;;;;;;4.59;86.63;100693.47;113153;239;39199;-68
2024/01/27 09:13:27;;;;;;;6.20;2.50;;;;;;;4.55;86.73;100691.94;113173;239;38781;-68
2024/01/27 09:16:01;;;;;;;6.10;2.20;;;;;;;4.56;87.11;100701.27;113140;239;38259;-68
2024/01/27 09:18:35;;;;;;;6.30;2.80;;;;;;;4.60;87.39;100709.00;113116;239;40368;-68
2024/01/27 09:21:09;;;;;;;3.90;1.80;;;;;;;4.64;87.08;100710.36;113164;239;38477;-68
2024/01/27 09:23:43;;;;;;;6.10;2.70;;;;;;;4.61;86.92;100713.14;113133;239;38476;-67
2024/01/27 09:26:18;;;;;;;7.30;2.40;;;;;;;4.60;86.99;100713.50;113170;239;38258;-68
2024/01/27 09:28:55;;;;;;;7.20;2.30;;;;;;;4.63;87.28;100719.01;113136;239;38697;-68
2024/01/27 09:31:30;;;;;;;4.90;2.60;;;;;;;4.67;87.64;100722.42;113143;239;38385;-70
2024/01/27 09:34:04;;;;;;;6.40;3.10;;;;;;;4.72;87.63;100726.36;113160;239;40002;-68
2024/01/27 09:36:38;;;;;;;6.40;3.30;;;;;;;4.71;87.33;100730.69;113159;239;38339;-67
2024/01/27 09:39:12;;;;;;;5.40;2.60;;;;;;;4.71;87.17;100733.98;113133;239;38531;-69
2024/01/27 09:41:47;;;;;;;4.00;2.30;;;;;;;4.70;87.17;100735.02;113152;239;39482;-69
2024/01/27 09:44:22;;;;;;;5.90;2.60;;;;;;;4.69;86.88;100736.41;113134;239;38277;-69
2024/01/27 09:46:57;;;;;;;5.10;2.70;;;;;;;4.67;87.01;100741.61;113141;239;38243;-68
2024/01/27 09:49:34;;;;;;;6.20;2.70;;;;;;;4.68;87.16;100742.13;113154;239;38296;-69
2024/01/27 09:52:09;;;;;;;5.50;3.40;;;;;;;4.68;87.23;100746.61;113152;239;38644;-70
2024/01/27 09:54:44;;;;;;;5.60;3.20;;;;;;;4.66;87.20;100745.77;113182;239;38708;-69
2024/01/27 09:57:20;;;;;;;5.20;3.70;;;;;;;4.65;87.25;100751.98;113163;239;38614;-68
2024/01/27 09:59:54;;;;;;;5.00;3.30;;;;;;;4.66;87.33;100752.49;112726;239;174912;-67
2024/01/27 10:02:29;;;;;;;5.30;4.70;;;;;;;4.70;87.45;100755.06;112687;243;38010;-67
2024/01/27 10:05:03;;;;;;;6.20;4.60;;;;;;;4.70;87.23;100759.73;112842;243;38544;-67
2024/01/27 10:07:38;;;;;;;3.30;2.60;;;;;;;4.69;87.36;100756.81;111907;243;909473;-67
2024/01/27 10:10:12;;;;;;;4.80;2.30;;;;;;;4.68;87.27;100760.79;112181;243;908969;-69
2024/01/27 10:12:46;;;;;;;4.10;2.60;;;;;;;4.66;87.50;100766.16;112717;241;155962;-70
2024/01/27 10:15:27;;;;;;;3.50;2.20;;;;;;;4.65;87.42;100771.52;112821;243;38316;-67
2024/01/27 10:18:12;;;;;;;4.80;1.80;;;;;;;4.66;87.59;100773.77;112855;243;39728;-67
2024/01/27 10:20:47;;;;;;;2.90;1.40;;;;;;;4.70;87.61;100779.44;112853;243;38423;-69
2024/01/27 10:23:21;;;;;;;4.10;1.60;;;;;;;4.72;87.81;100780.97;112820;243;38712;-69
2024/01/27 10:25:57;;;;;;;4.00;1.80;;;;;;;4.74;87.76;100787.37;112657;240;174968;-69
2024/01/27 10:28:32;;;;;;;3.10;2.10;;;;;;;4.75;87.69;100788.56;112854;243;38255;-69
2024/01/27 10:31:14;;;;;;;2.60;1.50;;;;;;;4.78;87.61;100790.27;112857;243;38589;-69
2024/01/27 10:33:57;;;;;;;3.60;2.10;;;;;;;4.80;87.43;100796.48;112878;243;38409;-70
2024/01/27 10:36:41;;;;;;;3.40;2.10;;;;;;;4.84;87.55;100795.92;112687;241;154790;-68
2024/01/27 10:39:25;;;;;;;5.50;2.30;;;;;;;4.89;87.79;100802.46;112733;243;38583;-68
2024/01/27 10:41:59;;;;;;;3.30;1.80;;;;;;;4.89;87.55;100809.36;112840;243;38685;-67
2024/01/27 10:44:34;;;;;;;2.70;1.80;;;;;;;4.84;87.31;100809.06;112854;243;38387;-67
2024/01/27 10:47:08;;;;;;;4.00;1.60;;;;;;;4.84;87.39;100814.08;112777;243;38751;-67
2024/01/27 10:49:42;;;;;;;2.50;1.60;;;;;;;4.85;87.28;100816.30;112672;243;154551;-67
2024/01/27 10:52:16;;;;;;;3.50;1.70;;;;;;;4.83;87.06;100826.00;112836;243;39188;-67
2024/01/27 10:54:50;;;;;;;3.60;1.90;;;;;;;4.83;87.14;100826.02;112686;241;154619;-69
2024/01/27 10:57:24;;;;;;;3.50;1.50;;;;;;;4.84;87.24;100828.08;112730;243;38425;-70
2024/01/27 10:59:59;;;;;;;4.40;1.80;;;;;;;4.81;86.96;100837.42;112846;243;38417;-69
2024/01/27 11:02:34;;;;;;;2.80;1.70;;;;;;;4.74;86.67;100842.66;112696;243;39575;-69
2024/01/27 11:05:10;;;;;;;1.60;1.20;;;;;;;4.72;86.77;100847.52;112848;243;38379;-68
2024/01/27 11:07:43;;;;;;;2.70;1.30;;;;;;;4.71;86.89;100849.06;112591;241;154478;-68
2024/01/27 11:10:17;;;;;;;4.20;1.60;;;;;;;4.72;87.03;100850.80;112838;243;38528;-69
2024/01/27 11:12:52;;;;;;;3.60;1.80;;;;;;;4.74;87.18;100854.77;112711;241;154505;-69
2024/01/27 11:15:26;;;;;;;2.50;1.70;;;;;;;4.80;87.28;100856.61;112809;243;38477;-69
2024/01/27 11:18:04;;;;;;;3.40;2.00;;;;;;;4.79;86.67;100863.38;112830;243;38523;-69
2024/01/27 11:20:38;;;;;;;2.40;1.70;;;;;;;4.74;86.59;100869.80;112726;243;38664;-70
2024/01/27 11:23:16;;;;;;;2.10;1.60;;;;;;;4.71;86.54;100873.44;112846;243;38267;-69
2024/01/27 11:25:50;;;;;;;2.80;1.50;;;;;;;4.66;86.25;100877.27;112747;242;154373;-67
2024/01/27 11:28:28;;;;;;;3.50;1.60;;;;;;;4.65;86.35;100882.12;112873;243;38262;-67
2024/01/27 11:31:06;;;;;;;2.50;1.80;;;;;;;4.64;86.48;100888.17;112509;241;174964;-67
2024/01/27 11:33:45;;;;;;;1.80;1.40;;;;;;;4.68;86.69;100890.92;112772;243;38314;-67
2024/01/27 11:36:26;;;;;;;2.80;1.70;;;;;;;4.65;86.16;100898.02;112736;241;153873;-69
2024/01/27 11:39:03;;;;;;;2.00;1.30;;;;;;;4.58;86.13;100901.52;112812;243;38405;-67
2024/01/27 11:41:38;;;;;;;1.30;1.20;;;;;;;4.56;85.99;100912.73;112860;243;38794;-67
2024/01/27 11:44:16;;;;;;;2.10;1.40;;;;;;;4.51;85.70;100914.84;112548;242;154490;-68
2024/01/27 11:46:50;;;;;;;1.90;1.20;;;;;;;4.51;85.65;100924.70;112885;243;38258;-69
2024/01/27 11:49:24;;;;;;;1.50;1.20;;;;;;;4.48;85.70;100927.80;112774;232;176991;-68
2024/01/27 11:51:58;;;;;;;1.40;1.10;;;;;;;4.45;85.55;100935.42;112873;242;38833;-68
2024/01/27 11:54:32;;;;;;;2.00;1.30;;;;;;;4.42;85.85;100942.69;112694;243;153843;-68
2024/01/27 11:57:06;;;;;;;1.80;1.40;;;;;;;4.37;85.80;100947.71;112692;243;38883;-69
2024/01/27 11:59:41;;;;;;;1.70;1.30;;;;;;;4.35;85.87;100955.33;112831;243;38372;-68
2024/01/27 12:02:15;;;;;;;1.60;1.50;;;;;;;4.27;85.28;100963.65;112561;241;154701;-68